• Join FlightAware (Why Join?)
  • Login
  • US Flag 
04:56PM EDT


 

Airport Tracker/Info


-or-


 

Live Flight TrackerFlight Track Log ✈ GJS3707 ✈ 21-May-2013 ✈ KORD - KBOI

Flight Track Log - Related Links

Times and Time Zones

All times are in EDT time to prevent confusion due to time zone crossing. See the GJS3707 flight status page for this flight to view local times or setup timezone preferences in your user account.

Time Position Orientation Groundspeed Altitude Reporting Facility
EDT Latitude Longitude Course Direction KTS MPH feet Rate Location/Type
11:16AM 41.9667 -87.9833 270° West 182 209 2,400  Level Chicago TRACON
11:17AM 41.9667 -88.0500 270° West 221 254 4,300 1,920 Climbing Chicago TRACON
11:18AM 41.9736 -88.1597 275° West 253 291 6,800 2,160 Climbing Chicago Center
11:19AM 41.9667 -88.5023 270° West  Level FlightAware Approximate
11:19AM 42.0072 -88.2481 297° West 270 311 9,300  Level Chicago Center
11:20AM 41.9668 -88.6528 270° West  Level FlightAware Approximate
11:20AM 42.0475 -88.3347 302° West 277 319 11,700  Level Chicago Center
11:21AM 41.9667 -88.8086 270° West  Level FlightAware Approximate
11:21AM 42.0494 -88.4647 271° West 294 338 13,300  Level Chicago Center
11:22AM 42.0458 -88.5811 268° West 311 358 15,300 1,680 Climbing Chicago Center
11:23AM 42.0531 -88.7028 275° West 327 376 16,800 1,500 Climbing Chicago Center
11:24AM 42.0633 -88.8294 276° West 341 392 18,400 1,500 Climbing Chicago Center
11:25AM 42.0736 -88.9722 276° West 363 418 19,900 1,860 Climbing Chicago Center
11:26AM 42.0867 -89.1286 276° West 359 413 22,300 1,860 Climbing Chicago Center
11:27AM 42.1008 -89.2592 278° West 353 406 23,800 1,200 Climbing Chicago Center
11:28AM 42.1197 -89.3933 281° West 361 415 24,800 960 Climbing Chicago Center
11:29AM 42.1381 -89.5306 280° West 370 426 25,800 960 Climbing Chicago Center
11:30AM 42.1603 -89.6761 282° West 389 448 26,800 960 Climbing Chicago Center
11:31AM 42.1822 -89.8186 282° West 389 448 27,800 960 Climbing Chicago Center
11:32AM 42.2047 -89.9556 283° West 392 451 28,800 1,020 Climbing Chicago Center
11:33AM 42.2375 -90.1269 285° West 396 456 30,000 1,020 Climbing Chicago Center
11:34AM 42.2667 -90.2692 286° West 397 457 31,000 960 Climbing Chicago Center
11:35AM 42.2978 -90.4094 287° West 395 455 32,000 960 Climbing Chicago Center
11:36AM 42.3275 -90.5492 286° West 391 450 33,000 960 Climbing Chicago Center
11:37AM 42.3617 -90.6853 289° West 387 445 34,000 480 Climbing Chicago Center
11:38AM 42.4092 -90.8511 291° West 396 456 34,000  Level Chicago Center
11:39AM 42.4494 -90.9900 291° West 399 459 34,000  Level Chicago Center
11:41AM 42.4894 -91.1272 292° West 396 456 34,000  Level Chicago Center
11:42AM 42.5283 -91.2658 291° West 396 456 34,000  Level Chicago Center
11:43AM 42.5689 -91.4083 291° West 405 466 34,000  Level Chicago Center
11:44AM 42.6083 -91.5511 291° West 403 464 34,000  Level Chicago Center
11:45AM 42.6500 -91.6981 291° West 409 471 34,000  Level Chicago Center
11:46AM 42.6908 -91.8442 291° West 409 471 34,000  Level Chicago Center
11:47AM 42.7392 -92.0197 291° West 413 475 34,000  Level Chicago Center
11:48AM 42.7803 -92.1669 291° West 418 481 34,000  Level Chicago Center
11:49AM 42.8206 -92.3156 290° West 420 483 34,000  Level Chicago Center
11:50AM 42.8611 -92.4644 290° West 421 484 34,000  Level Chicago Center
11:51AM 42.9019 -92.6153 290° West 425 489 34,000  Level Chicago Center
11:52AM 42.9356 -92.7333 291° West 420 483 34,000  Level Minneapolis Center
11:53AM 42.9836 -92.9119 290° West 420 483 34,000  Level Minneapolis Center
11:54AM 43.0222 -93.0567 290° West 415 478 34,000  Level Minneapolis Center
11:55AM 43.0594 -93.2056 289° West 416 479 34,000  Level Minneapolis Center
11:56AM 43.0994 -93.3567 290° West 425 489 34,000  Level Minneapolis Center
11:57AM 43.1247 -93.5119 283° West 420 483 34,000  Level Minneapolis Center
11:58AM 43.1583 -93.6994 284° West 425 489 34,000  Level Minneapolis Center
11:59AM 43.1856 -93.8550 284° West 423 487 34,000  Level Minneapolis Center
12:00PM 43.2125 -94.0122 283° West 427 491 34,000  Level Minneapolis Center
12:01PM 43.2389 -94.1714 283° West 432 497 34,000  Level Minneapolis Center
12:02PM 43.2658 -94.3264 283° West 432 497 34,000  Level Minneapolis Center
12:03PM 43.3036 -94.5489 283° West 428 493 34,000  Level Minneapolis Center
12:04PM 43.3289 -94.7058 283° West 423 487 34,000  Level Minneapolis Center
12:05PM 43.3556 -94.8653 283° West 426 490 34,000  Level Minneapolis Center
12:06PM 43.3817 -95.0261 283° West 430 495 34,000  Level Minneapolis Center
12:07PM 43.4078 -95.1894 282° West 435 501 34,000  Level Minneapolis Center
12:08PM 43.4339 -95.3522 283° West 437 503 34,000  Level Minneapolis Center
12:09PM 43.4589 -95.5133 282° West 432 497 34,000  Level Minneapolis Center
12:10PM 43.4897 -95.7072 282° West 431 496 34,000  Level Minneapolis Center
12:11PM 43.5147 -95.8683 282° West 429 494 34,000  Level Minneapolis Center
12:12PM 43.5389 -96.0283 282° West 427 491 34,000  Level Minneapolis Center
12:13PM 43.5631 -96.1911 282° West 430 495 34,000  Level Minneapolis Center
12:14PM 43.5872 -96.3525 282° West 428 493 34,000  Level Minneapolis Center
12:16PM 43.6106 -96.5133 281° West 427 491 34,000  Level Minneapolis Center
12:17PM 43.6339 -96.6758 281° West 429 494 34,000  Level Minneapolis Center
12:18PM 43.6556 -96.8408 280° West 434 499 34,000  Level Minneapolis Center
12:19PM 43.6694 -97.0422 276° West 437 503 34,000  Level Minneapolis Center
12:21PM 43.6897 -97.3450 275° West  Level FlightAware Approximate
12:22PM 43.7072 -97.5383 275° West 431 496 34,000  Level Minneapolis Center
12:23PM 43.7200 -97.7028 276° West 432 497 34,000  Level Minneapolis Center
12:24PM 43.7311 -97.8672 275° West 430 495 34,000  Level Minneapolis Center
12:25PM 43.7422 -98.0317 275° West 432 497 34,000  Level Minneapolis Center
12:26PM 43.7558 -98.2300 275° West 432 497 34,000  Level Minneapolis Center
12:27PM 43.7656 -98.3631 276° West 434 499 34,000  Level Minneapolis Center
12:28PM 43.7783 -98.5625 275° West 436 502 34,000  Level Minneapolis Center
12:29PM 43.7886 -98.7356 275° West 437 503 34,000  Level Minneapolis Center
12:30PM 43.7989 -98.9042 275° West 439 505 34,000  Level Minneapolis Center
12:31PM 43.8094 -99.0706 275° West 435 501 34,000  Level Minneapolis Center
12:32PM 43.8189 -99.2381 275° West 435 501 34,000  Level Minneapolis Center
12:33PM 43.8267 -99.3719 275° West 435 501 34,000  Level Minneapolis Center
12:34PM 43.8375 -99.5708 274° West 432 497 34,000  Level Minneapolis Center
12:35PM 43.8481 -99.7692 274° West 431 496 34,000  Level Minneapolis Center
12:36PM 43.8578 -99.9342 275° West 430 495 34,000  Level Minneapolis Center
12:37PM 43.8661 -100.0997 274° West 430 495 34,000  Level Minneapolis Center
12:38PM 43.8733 -100.2636 274° West 428 493 34,000  Level Minneapolis Center
12:39PM 43.8814 -100.4281 274° West 427 491 34,000  Level Minneapolis Center
12:40PM 43.8897 -100.5939 274° West 429 494 34,000  Level Minneapolis Center
12:41PM 43.8975 -100.7614 274° West 432 497 34,000  Level Minneapolis Center
12:42PM 43.9028 -100.8928 273° West 430 495 34,000  Level Minneapolis Center
12:43PM 43.9125 -101.1250 273° West 429 494 34,000  Level Minneapolis Center
12:44PM 43.9181 -101.2572 273° West 429 494 34,000  Level Minneapolis Center
12:45PM 43.9250 -101.4525 273° West 427 491 34,000  Level Minneapolis Center
12:46PM 43.9292 -101.6156 272° West 424 488 34,000  Level Minneapolis Center
12:47PM 43.9367 -101.7475 275° West 423 487 34,000  Level Denver Center
12:48PM 43.9383 -101.9078 271° West 418 481 34,000  Level Denver Center
12:49PM 43.9439 -102.0719 273° West 422 486 34,000  Level Denver Center
12:50PM 43.9497 -102.2375 273° West 427 491 34,000  Level Denver Center
12:51PM 43.9572 -102.4397 273° West 434 499 34,000  Level Denver Center
12:52PM 43.9642 -102.6086 273° West 436 502 34,000  Level Denver Center
12:53PM 43.9706 -102.7800 273° West 442 509 34,000  Level Denver Center
12:54PM 43.9753 -102.9564 272° West 439 505 34,000  Level Denver Center
12:56PM 43.9783 -103.1178 272° West 439 505 34,000  Level Denver Center
12:57PM 43.9831 -103.3083 272° West 441 507 34,000  Level Denver Center
12:58PM 43.9844 -103.4708 271° West 441 507 34,000  Level Denver Center
12:59PM 43.9878 -103.6350 272° West 444 511 34,000  Level Denver Center
01:00PM 43.9906 -103.8261 271° West 445 512 34,000  Level Denver Center
01:01PM 43.9939 -104.0203 271° West 452 520 34,000  Level Denver Center
01:02PM 43.9964 -104.1844 271° West 448 516 34,000  Level Denver Center
01:03PM 43.9981 -104.3792 271° West 452 520 34,000  Level Denver Center
01:04PM 43.9997 -104.5453 271° West 452 520 34,000  Level Denver Center
01:05PM 44.0014 -104.7389 271° West 451 519 34,000  Level Denver Center
01:06PM 44.0022 -104.9078 270° West 456 525 34,000  Level Denver Center
01:07PM 44.0036 -105.0994 271° West 449 517 34,000  Level Denver Center
01:08PM 44.0036 -105.3222 270° West 452 520 34,000  Level Denver Center
01:09PM 44.0050 -105.4864 271° West 448 516 34,000  Level Denver Center
01:10PM 44.0044 -105.6508 270° West 447 514 34,000  Level Denver Center
01:11PM 44.0039 -105.8422 270° West 446 513 34,000  Level Denver Center
01:12PM 44.0044 -106.0053 270° West 444 511 34,000  Level Denver Center
01:13PM 44.0017 -106.2014 269° West 451 519 34,000  Level Denver Center
01:14PM 44.0000 -106.2653 268° West 449 517 34,000  Level Salt Lake Center
01:15PM 43.9981 -106.4311 269° West 449 517 34,000  Level Salt Lake Center
01:15PM 44.0039 -106.5614 274° West 455 524 34,000  Level Denver Center
01:16PM 44.0106 -106.7269 273° West 453 521 34,000  Level Denver Center
01:17PM 44.0122 -106.7911 272° West 451 519 34,000  Level Salt Lake Center
01:17PM 44.0169 -106.9044 273° West 450 518 34,000  Level Denver Center
01:18PM 44.0244 -107.0953 273° West 447 514 34,000  Level Denver Center
01:19PM 44.0264 -107.1522 273° West 452 520 34,000  Level Salt Lake Center
01:20PM 44.0308 -107.3161 272° West 444 511 34,000  Level Salt Lake Center
01:21PM 44.0367 -107.4808 273° West 444 511 34,000  Level Salt Lake Center
01:22PM 44.0425 -107.6736 272° West 444 511 34,000  Level Salt Lake Center
01:23PM 44.0472 -107.8381 272° West 444 511 34,000  Level Salt Lake Center
01:24PM 44.0531 -108.0303 272° West 445 512 34,000  Level Salt Lake Center
01:25PM 44.0575 -108.1942 272° West 442 509 34,000  Level Salt Lake Center
01:26PM 44.0611 -108.3583 272° West 443 510 34,000  Level Salt Lake Center
01:27PM 44.0661 -108.5481 272° West 440 506 34,000  Level Salt Lake Center
01:28PM 44.0689 -108.7083 271° West 434 499 34,000  Level Salt Lake Center
01:29PM 44.0722 -108.8922 272° West 426 490 34,000  Level Salt Lake Center
01:30PM 44.0747 -109.0497 271° West 425 489 34,000  Level Salt Lake Center
01:31PM 44.0778 -109.2047 272° West 419 482 34,000  Level Salt Lake Center
01:32PM 44.0800 -109.3847 271° West 418 481 34,000  Level Salt Lake Center
01:33PM 44.0844 -109.5536 272° West 414 476 34,000  Level Salt Lake Center
01:34PM 44.0856 -109.7086 271° West 419 482 34,000  Level Salt Lake Center
01:35PM 44.0886 -109.8883 271° West 416 479 34,000  Level Salt Lake Center
01:36PM 44.0903 -110.0417 271° West 414 476 34,000  Level Salt Lake Center
01:37PM 44.0911 -110.1956 270° West 415 478 34,000  Level Salt Lake Center
01:38PM 44.0914 -110.3767 270° West 419 482 34,000  Level Salt Lake Center
01:39PM 44.0936 -110.5308 271° West 416 479 34,000  Level Salt Lake Center
01:40PM 44.0933 -110.7097 270° West 416 479 34,000  Level Salt Lake Center
01:41PM 44.0939 -110.8636 270° West 415 478 34,000  Level Salt Lake Center
01:42PM 44.0936 -111.0422 270° West 413 475 34,000  Level Salt Lake Center
01:43PM 44.0939 -111.1939 270° West 409 471 34,000  Level Salt Lake Center
01:44PM 44.0939 -111.3450 270° West 407 468 34,000  Level Salt Lake Center
01:45PM 44.0936 -111.5214 270° West 406 467 34,000  Level Salt Lake Center
01:47PM 44.0928 -111.6722 270° West 405 466 34,000  Level Salt Lake Center
01:48PM 44.0917 -111.8472 270° West 403 464 34,000  Level Salt Lake Center
01:49PM 44.0911 -111.9989 270° West 407 468 34,000  Level Salt Lake Center
01:50PM 44.0889 -112.1475 269° West 401 461 34,000  Level Salt Lake Center
01:51PM 44.0747 -112.3233 264° West 412 474 34,000  Level Salt Lake Center
01:52PM 44.0575 -112.4744 261° West 413 475 34,000  Level Salt Lake Center
01:53PM 44.0394 -112.6508 262° West 413 475 34,000  Level Salt Lake Center
01:54PM 44.0208 -112.8008 260° West 412 474 34,000  Level Salt Lake Center
01:55PM 43.9986 -112.9747 260° West 410 472 34,000  Level Salt Lake Center
01:56PM 43.9819 -113.1239 261° West 408 470 34,000  Level Salt Lake Center
01:57PM 43.9622 -113.2969 261° West 407 468 34,000  Level Salt Lake Center
01:58PM 43.9436 -113.4431 260° West 403 464 34,000  Level Salt Lake Center
01:59PM 43.9217 -113.6156 260° West 409 471 34,000  Level Salt Lake Center
02:00PM 43.9028 -113.7608 260° West 399 459 34,000  Level Salt Lake Center
02:01PM 43.8814 -113.9269 260° West 400 460 34,000 -420 Level Salt Lake Center
02:02PM 43.8628 -114.0736 260° West 405 466 33,200 -1,260 Descending Salt Lake Center
02:03PM 43.8433 -114.2228 260° West 412 474 31,500 -1,920 Descending Salt Lake Center
02:04PM 43.8203 -114.3975 260° West 410 472 29,300 -2,280 Descending Salt Lake Center
02:05PM 43.8000 -114.5461 259° West 410 472 26,900 -2,520 Descending Salt Lake Center
02:06PM 43.7781 -114.7194 260° West 410 472 24,100 -2,520 Descending Salt Lake Center
02:07PM 43.7583 -114.8622 259° West 396 456 21,700 -2,460 Descending Salt Lake Center
02:08PM 43.7367 -115.0169 259° West 368 423 19,100 -2,340 Descending Salt Lake Center
02:09PM 43.7206 -115.1444 260° West 351 404 17,000 -2,100 Descending Salt Lake Center
02:10PM 43.6989 -115.2897 258° West 345 397 14,800 -1,920 Descending Salt Lake Center
02:11PM 43.6811 -115.4189 259° West 338 389 13,100 -900 Descending Salt Lake Center
02:12PM 43.6625 -115.5506 259° West 335 386 13,000 -600 Descending Salt Lake Center
02:14PM 43.6305 -115.7340 257° West  Level FlightAware Approximate
02:14PM 43.6272 -115.8000 257° West 326 375 11,300  Level Salt Lake Center
02:15PM 43.6103 -115.9139 258° West 292 336 9,800 -1,260 Descending Salt Lake Center
02:16PM 43.5931 -116.0256 258° West 286 329 8,700 -900 Descending Salt Lake Center
02:17PM 43.6125 -116.1378 283° West 303 349 8,000 -660 Descending Salt Lake Center
02:19PM 43.6492 -116.2300 299° West 270 311 7,400 -1,020 Descending Salt Lake Center
02:20PM 43.6828 -116.3136 299° West 245 282 6,000 -1,200 Descending Salt Lake Center
02:21PM 43.7122 -116.3903 298° West 237 273 5,000 -540 Descending Salt Lake Center
02:22PM 43.6922 -116.4417 242° Southwest 194 223 5,000  Level Salt Lake Center
02:23PM 43.6475 -116.4300 169° South 175 201 5,000  Level Salt Lake Center